createdAt,value
2023-03-21T00:00:47.704Z,0.6016
2023-03-21T00:01:49.160Z,0.6151
2023-03-21T00:02:50.663Z,0.6176
2023-03-21T00:03:52.096Z,0.6142
2023-03-21T00:04:55.094Z,0.6146
2023-03-21T00:05:54.943Z,0.6217
2023-03-21T00:06:56.330Z,0.6315
2023-03-21T00:07:57.793Z,0.6265
2023-03-21T00:08:59.211Z,0.6134
2023-03-21T00:10:12.385Z,0.6131
2023-03-21T00:11:02.098Z,0.6170
2023-03-21T00:12:03.521Z,0.6207
2023-03-21T00:13:04.962Z,0.6123
2023-03-21T00:14:06.403Z,0.6074
2023-03-21T00:15:07.835Z,0.6038
2023-03-21T00:16:20.469Z,0.5960
2023-03-21T00:17:10.710Z,0.5930
2023-03-21T00:18:12.160Z,0.5854
2023-03-21T00:19:13.584Z,0.5883
2023-03-21T00:20:15.092Z,0.5991
2023-03-21T00:21:40.687Z,0.5956
2023-03-21T00:22:17.905Z,0.5951
2023-03-21T00:23:19.337Z,0.5977
2023-03-21T00:24:20.788Z,0.5946
2023-03-21T00:25:22.222Z,0.5767
2023-03-21T00:26:23.673Z,0.5657
2023-03-21T00:27:56.927Z,0.5682
2023-03-21T00:28:26.549Z,0.5780
2023-03-21T00:29:27.988Z,0.5708
2023-03-21T00:30:29.432Z,0.5625
2023-03-21T00:31:30.863Z,0.5657
2023-03-21T00:32:35.593Z,0.5733
2023-03-21T00:33:33.754Z,0.5780
2023-03-21T00:34:43.205Z,0.5853
2023-03-21T00:36:01.806Z,0.5801
2023-03-21T00:36:38.256Z,0.5689
2023-03-21T00:37:39.605Z,0.5591
2023-03-21T00:38:41.041Z,0.5601
2023-03-21T00:39:42.483Z,0.5569
2023-03-21T00:40:49.169Z,0.5611
2023-03-21T00:41:45.403Z,0.5584
2023-03-21T00:42:46.796Z,0.5633
2023-03-21T00:43:48.216Z,0.5659
2023-03-21T00:44:49.671Z,0.5729
2023-03-21T00:45:51.147Z,0.5775
2023-03-21T00:47:06.193Z,0.5711
2023-03-21T00:47:54.138Z,0.5652
2023-03-21T00:48:55.496Z,0.5664
2023-03-21T00:49:56.840Z,0.5662
2023-03-21T00:50:58.314Z,0.5733
2023-03-21T00:52:14.790Z,0.5835
2023-03-21T00:53:01.164Z,0.5927
2023-03-21T00:54:02.594Z,0.5821
2023-03-21T00:55:04.047Z,0.5725
2023-03-21T00:56:05.485Z,0.5698
2023-03-21T00:57:06.919Z,0.5568
2023-03-21T00:58:08.393Z,0.5404
2023-03-21T00:59:09.805Z,0.5450
2023-03-21T01:00:11.229Z,0.5569
2023-03-21T01:01:12.704Z,0.5731
2023-03-21T01:02:14.159Z,0.5814
2023-03-21T01:03:24.506Z,0.5692
2023-03-21T01:04:17.166Z,0.5731
2023-03-21T01:05:18.442Z,0.5753
2023-03-21T01:06:19.866Z,0.5800
2023-03-21T01:07:21.318Z,0.5922
2023-03-21T01:08:29.411Z,0.5973
2023-03-21T01:09:24.214Z,0.6014
2023-03-21T01:10:25.632Z,0.6038
2023-03-21T01:11:27.084Z,0.5799
2023-03-21T01:12:28.525Z,0.5777
2023-03-21T01:13:29.956Z,0.5800
2023-03-21T01:14:31.401Z,0.5778
2023-03-21T01:15:32.834Z,0.5850
2023-03-21T01:16:34.379Z,0.5941
2023-03-21T01:17:35.731Z,0.5900
2023-03-21T01:18:37.142Z,0.5928
2023-03-21T01:19:51.301Z,0.5947
2023-03-21T01:20:40.031Z,0.5955
2023-03-21T01:21:41.491Z,0.5883
2023-03-21T01:22:42.897Z,0.5926
2023-03-21T01:23:44.349Z,0.5947
2023-03-21T01:24:54.115Z,0.6047
2023-03-21T01:25:47.223Z,0.6065
2023-03-21T01:26:48.666Z,0.6000
2023-03-21T01:27:50.108Z,0.6017
2023-03-21T01:28:51.534Z,0.5926
2023-03-21T01:29:52.991Z,0.5914
2023-03-21T01:30:54.415Z,0.5913
2023-03-21T01:31:55.953Z,0.5902
2023-03-21T01:32:57.292Z,0.5991
2023-03-21T01:33:58.734Z,0.6002
2023-03-21T01:35:00.173Z,0.6063
2023-03-21T01:36:12.160Z,0.6064
2023-03-21T01:37:03.081Z,0.6145
2023-03-21T01:38:04.496Z,0.6145
2023-03-21T01:39:05.926Z,0.6018
2023-03-21T01:40:07.370Z,0.5956
2023-03-21T01:41:18.892Z,0.5898
2023-03-21T01:42:10.249Z,0.5896
2023-03-21T01:43:11.681Z,0.5916
2023-03-21T01:44:13.123Z,0.5980
2023-03-21T01:45:14.565Z,0.6031
2023-03-21T01:46:16.040Z,0.5977
2023-03-21T01:47:17.461Z,0.6042
2023-03-21T01:48:18.902Z,0.6094
2023-03-21T01:49:20.305Z,0.6141
2023-03-21T01:50:21.749Z,0.6156
2023-03-21T01:51:23.185Z,0.6127
2023-03-21T01:52:37.195Z,0.6173
2023-03-21T01:53:26.067Z,0.6126
2023-03-21T01:54:27.505Z,0.6096
2023-03-21T01:55:28.940Z,0.6173
2023-03-21T01:56:30.397Z,0.6368
2023-03-21T01:57:40.962Z,0.6274
2023-03-21T01:58:33.330Z,0.6219
2023-03-21T01:59:34.702Z,0.6075
2023-03-21T02:00:36.138Z,0.6025
2023-03-21T02:01:37.576Z,0.6023
2023-03-21T02:02:39.019Z,0.6035
2023-03-21T02:03:40.500Z,0.6025
2023-03-21T02:04:41.900Z,0.5936
2023-03-21T02:05:43.326Z,0.6036
2023-03-21T02:06:44.782Z,0.5961
2023-03-21T02:07:46.200Z,0.5903
2023-03-21T02:08:47.649Z,0.5909
2023-03-21T02:09:49.086Z,0.5886
2023-03-21T02:10:50.696Z,0.5847
2023-03-21T02:11:51.999Z,0.5825
2023-03-21T02:12:53.407Z,0.5843
2023-03-21T02:14:05.670Z,0.5900
2023-03-21T02:14:56.283Z,0.5846
2023-03-21T02:15:57.716Z,0.5832
2023-03-21T02:16:59.219Z,0.5815
2023-03-21T02:18:00.582Z,0.5801
2023-03-21T02:19:02.038Z,0.5751
2023-03-21T02:20:03.468Z,0.5765
2023-03-21T02:21:04.899Z,0.5879
2023-03-21T02:22:06.325Z,0.5894
2023-03-21T02:23:07.773Z,0.5830
2023-03-21T02:24:09.210Z,0.5732
2023-03-21T02:25:21.269Z,0.5799
2023-03-21T02:26:12.089Z,0.5870
2023-03-21T02:27:13.528Z,0.5814
2023-03-21T02:28:14.956Z,0.5957
2023-03-21T02:29:17.736Z,0.5858
2023-03-21T02:30:28.247Z,0.5909
2023-03-21T02:31:19.317Z,0.5959
2023-03-21T02:32:35.018Z,0.5821
2023-03-21T02:33:22.150Z,0.5762
2023-03-21T02:34:23.588Z,0.5791
2023-03-21T02:35:25.025Z,0.5889
2023-03-21T02:36:26.543Z,0.5928
2023-03-21T02:37:36.753Z,0.5988
2023-03-21T02:38:29.380Z,0.5961
2023-03-21T02:39:30.792Z,0.5946
2023-03-21T02:40:32.247Z,0.5936
2023-03-21T02:41:40.133Z,0.5959
2023-03-21T02:42:35.138Z,0.5927
2023-03-21T02:43:36.543Z,0.5873
2023-03-21T02:44:37.994Z,0.5969
2023-03-21T02:45:39.424Z,0.6029
2023-03-21T02:46:45.653Z,0.6042
2023-03-21T02:47:42.333Z,0.5938
2023-03-21T02:48:50.672Z,0.5950
2023-03-21T02:49:45.193Z,0.5950
2023-03-21T02:50:46.622Z,0.6021
2023-03-21T02:51:48.105Z,0.6043
2023-03-21T02:52:49.490Z,0.6023
2023-03-21T02:54:04.574Z,0.6062
2023-03-21T02:54:52.368Z,0.6161
2023-03-21T02:55:53.807Z,0.6166
2023-03-21T02:56:55.380Z,0.6115
2023-03-21T02:57:56.870Z,0.6081
2023-03-21T02:58:58.174Z,0.6082
2023-03-21T03:00:07.524Z,0.6010
2023-03-21T03:01:01.020Z,0.5977
2023-03-21T03:02:02.459Z,0.5959
2023-03-21T03:03:09.869Z,0.5966
2023-03-21T03:04:05.345Z,0.6031
2023-03-21T03:05:18.005Z,0.6010
2023-03-21T03:06:08.225Z,0.6063
2023-03-21T03:07:09.624Z,0.6082
2023-03-21T03:08:11.105Z,0.6133
2023-03-21T03:09:12.511Z,0.6212
2023-03-21T03:10:13.943Z,0.6236
2023-03-21T03:11:15.373Z,0.6168
2023-03-21T03:12:16.827Z,0.6100
2023-03-21T03:13:18.254Z,0.6128
2023-03-21T03:15:21.128Z,0.6280
2023-03-21T03:16:22.570Z,0.6265
2023-03-21T03:17:24.013Z,0.6209
2023-03-21T03:18:25.454Z,0.6160
2023-03-21T03:19:26.885Z,0.6108
2023-03-21T03:20:28.323Z,0.6037
2023-03-21T03:21:29.755Z,0.5816
2023-03-21T03:22:31.197Z,0.5771
2023-03-21T03:23:32.631Z,0.5751
2023-03-21T03:24:34.093Z,0.5753
2023-03-21T03:25:42.605Z,0.5765
2023-03-21T03:26:36.961Z,0.5744
2023-03-21T03:27:38.380Z,0.5823
2023-03-21T03:28:39.840Z,0.5893
2023-03-21T03:29:41.263Z,0.5978
2023-03-21T03:30:54.070Z,0.5951
2023-03-21T03:31:44.206Z,0.5823
2023-03-21T03:32:45.577Z,0.5865
2023-03-21T03:33:47.009Z,0.5849
2023-03-21T03:34:48.451Z,0.5733
2023-03-21T03:36:02.568Z,0.5748
2023-03-21T03:36:51.372Z,0.5813
2023-03-21T03:37:52.746Z,0.5853
2023-03-21T03:38:54.185Z,0.5771
2023-03-21T03:39:55.617Z,0.5678
2023-03-21T03:40:57.061Z,0.5647
2023-03-21T03:42:27.199Z,0.5707
2023-03-21T03:42:59.929Z,0.5692
2023-03-21T03:44:01.363Z,0.5623
2023-03-21T03:45:02.810Z,0.5544
2023-03-21T03:46:04.234Z,0.5602
2023-03-21T03:47:05.691Z,0.5513
2023-03-21T03:48:07.155Z,0.5591
2023-03-21T03:49:08.566Z,0.5757
2023-03-21T03:50:09.983Z,0.5784
2023-03-21T03:51:11.425Z,0.5752
2023-03-21T03:52:12.867Z,0.5875
2023-03-21T03:53:18.358Z,0.5891
2023-03-21T03:54:15.726Z,0.5883
2023-03-21T03:55:17.166Z,0.5883
2023-03-21T03:56:18.597Z,0.5818
2023-03-21T03:57:20.046Z,0.5848
2023-03-21T03:58:24.252Z,0.5869
2023-03-21T03:59:22.902Z,0.5884
2023-03-21T04:00:24.329Z,0.5901
2023-03-21T04:01:25.768Z,0.5878
2023-03-21T04:02:27.289Z,0.5850
2023-03-21T04:03:32.416Z,0.5760
2023-03-21T04:04:30.147Z,0.5741
2023-03-21T04:05:31.513Z,0.5596
2023-03-21T04:06:32.944Z,0.5594
2023-03-21T04:07:34.385Z,0.5657
2023-03-21T04:08:35.854Z,0.5700
2023-03-21T04:09:44.071Z,0.5730
2023-03-21T04:10:39.099Z,0.5728
2023-03-21T04:11:40.122Z,0.5761
2023-03-21T04:12:41.572Z,0.5823
2023-03-21T04:13:43.047Z,0.5907
2023-03-21T04:14:46.976Z,0.5897
2023-03-21T04:15:46.072Z,0.5779
2023-03-21T04:16:47.307Z,0.5831
2023-03-21T04:17:48.719Z,0.5856
2023-03-21T04:18:50.170Z,0.5951
2023-03-21T04:19:55.476Z,0.5958
2023-03-21T04:20:53.031Z,0.5975
2023-03-21T04:21:54.455Z,0.6047
2023-03-21T04:22:55.893Z,0.5933
2023-03-21T04:23:57.323Z,0.5776
2023-03-21T04:25:00.517Z,0.5675
2023-03-21T04:26:00.189Z,0.5611
2023-03-21T04:27:01.642Z,0.5735
2023-03-21T04:28:03.045Z,0.5756
2023-03-21T04:29:04.484Z,0.5785
2023-03-21T04:30:05.911Z,0.5798
2023-03-21T04:31:16.098Z,0.5796
2023-03-21T04:32:08.820Z,0.5870
2023-03-21T04:33:10.218Z,0.5819
2023-03-21T04:34:11.641Z,0.5812
2023-03-21T04:35:13.088Z,0.5831
2023-03-21T04:36:14.546Z,0.5779
2023-03-21T04:37:15.957Z,0.5781
2023-03-21T04:38:17.477Z,0.5801
2023-03-21T04:39:18.918Z,0.5764
2023-03-21T04:40:20.367Z,0.5802
2023-03-21T04:41:21.801Z,0.5784
2023-03-21T04:42:23.210Z,0.5753
2023-03-21T04:43:24.656Z,0.5745
2023-03-21T04:44:26.082Z,0.5729
2023-03-21T04:45:27.527Z,0.5774
2023-03-21T04:46:28.968Z,0.5823
2023-03-21T04:47:30.396Z,0.5938
2023-03-21T04:48:31.831Z,0.5926
2023-03-21T04:49:33.287Z,0.5873
2023-03-21T04:50:34.921Z,0.5816
2023-03-21T04:51:36.140Z,0.5819
2023-03-21T04:52:37.588Z,0.5820
2023-03-21T04:53:39.019Z,0.5825
2023-03-21T04:54:40.450Z,0.5809
2023-03-21T04:55:41.885Z,0.5756
2023-03-21T04:56:43.329Z,0.5729
2023-03-21T04:57:44.772Z,0.5797
2023-03-21T04:58:46.191Z,0.5937
2023-03-21T04:59:47.640Z,0.6010
2023-03-21T05:00:49.090Z,0.6064
2023-03-21T05:01:50.498Z,0.6002
2023-03-21T05:02:51.929Z,0.5878
2023-03-21T05:03:53.382Z,0.5873
2023-03-21T05:04:54.794Z,0.5826
2023-03-21T05:05:56.241Z,0.5747
2023-03-21T05:06:57.664Z,0.5707
2023-03-21T05:07:59.106Z,0.5773
2023-03-21T05:09:00.555Z,0.5755
2023-03-21T05:10:02.776Z,0.5729
2023-03-21T05:11:03.408Z,0.5813
2023-03-21T05:12:04.864Z,0.5823
2023-03-21T05:13:06.299Z,0.5807
2023-03-21T05:14:07.725Z,0.5770
2023-03-21T05:15:09.194Z,0.5738
2023-03-21T05:16:10.604Z,0.5802
2023-03-21T05:17:12.044Z,0.5757
2023-03-21T05:18:13.463Z,0.5771
2023-03-21T05:19:14.903Z,0.5768
2023-03-21T05:20:16.380Z,0.5718
2023-03-21T05:21:17.768Z,0.5691
2023-03-21T05:22:19.213Z,0.5699
2023-03-21T05:23:20.636Z,0.5661
2023-03-21T05:24:22.079Z,0.5617
2023-03-21T05:25:23.513Z,0.5651
2023-03-21T05:26:24.956Z,0.5749
2023-03-21T05:27:26.390Z,0.5742
2023-03-21T05:28:27.825Z,0.5720
2023-03-21T05:29:29.260Z,0.5697
2023-03-21T05:30:30.705Z,0.5815
2023-03-21T05:31:32.143Z,0.5836
2023-03-21T05:32:33.575Z,0.5813
2023-03-21T05:33:35.000Z,0.5662
2023-03-21T05:34:36.442Z,0.5639
2023-03-21T05:35:38.141Z,0.5579
2023-03-21T05:36:39.349Z,0.5658
2023-03-21T05:37:40.753Z,0.5688
2023-03-21T05:38:42.192Z,0.5695
2023-03-21T05:39:43.623Z,0.5702
2023-03-21T05:40:45.061Z,0.5695
2023-03-21T05:41:46.521Z,0.5645
2023-03-21T05:42:47.927Z,0.5613
2023-03-21T05:43:49.370Z,0.5625
2023-03-21T05:44:50.794Z,0.5670
2023-03-21T05:45:52.267Z,0.5738
2023-03-21T05:46:53.683Z,0.5830
2023-03-21T05:47:55.129Z,0.5546
2023-03-21T05:48:56.541Z,0.5304
2023-03-21T05:49:57.971Z,0.5145
2023-03-21T05:50:59.436Z,0.4969
2023-03-21T05:52:00.860Z,0.4940
2023-03-21T05:53:02.314Z,0.4830
2023-03-21T05:54:03.757Z,0.4810
2023-03-21T05:55:05.174Z,0.4780
2023-03-21T05:56:06.614Z,0.4631
2023-03-21T05:57:08.062Z,0.4687
2023-03-21T05:58:09.478Z,0.4647
2023-03-21T05:59:10.919Z,0.4533
2023-03-21T06:00:12.369Z,0.4507
2023-03-21T06:01:13.791Z,0.4551
2023-03-21T06:02:15.311Z,0.4576
2023-03-21T06:03:16.663Z,0.4726
2023-03-21T06:04:18.140Z,0.4840
2023-03-21T06:05:19.531Z,0.4939
2023-03-21T06:06:20.972Z,0.4955
2023-03-21T06:07:22.406Z,0.5034
2023-03-21T06:08:23.833Z,0.4981
2023-03-21T06:09:25.274Z,0.4888
2023-03-21T06:10:26.702Z,0.4945
2023-03-21T06:11:28.166Z,0.4937
2023-03-21T06:12:29.580Z,0.4998
2023-03-21T06:13:31.018Z,0.4994
2023-03-21T06:14:32.459Z,0.4984
2023-03-21T06:15:33.880Z,0.5201
2023-03-21T06:16:35.323Z,0.5154
2023-03-21T06:17:36.754Z,0.5210
2023-03-21T06:18:38.196Z,0.5273
2023-03-21T06:19:39.630Z,0.5359
2023-03-21T06:20:41.056Z,0.5470
2023-03-21T06:21:42.520Z,0.5573
2023-03-21T06:22:43.934Z,0.5547
2023-03-21T06:23:45.376Z,0.5558
2023-03-21T06:24:46.802Z,0.5538
2023-03-21T06:25:48.253Z,0.5469
2023-03-21T06:26:49.683Z,0.5510
2023-03-21T06:27:51.119Z,0.5713
2023-03-21T06:28:52.540Z,0.5721
2023-03-21T06:29:53.987Z,0.5694
2023-03-21T06:30:55.501Z,0.5670
2023-03-21T06:31:56.867Z,0.5725
2023-03-21T06:32:58.327Z,0.5770
2023-03-21T06:33:59.733Z,0.5741
2023-03-21T06:35:01.168Z,0.5559
2023-03-21T06:36:02.621Z,0.5454
2023-03-21T06:37:04.051Z,0.5511
2023-03-21T06:38:05.516Z,0.5546
2023-03-21T06:39:06.917Z,0.5433
2023-03-21T06:40:08.364Z,0.5381
2023-03-21T06:41:09.780Z,0.5309
2023-03-21T06:42:11.233Z,0.5304
2023-03-21T06:43:12.669Z,0.5235
2023-03-21T06:44:14.144Z,0.5233
2023-03-21T06:45:15.542Z,0.5236
2023-03-21T06:46:17.005Z,0.5202
2023-03-21T06:47:18.426Z,0.5233
2023-03-21T06:48:19.954Z,0.5348
2023-03-21T06:49:21.301Z,0.5418
2023-03-21T06:50:22.732Z,0.5487
2023-03-21T06:51:24.169Z,0.5550
2023-03-21T06:52:25.607Z,0.5501
2023-03-21T06:53:27.038Z,0.5555
2023-03-21T06:54:28.475Z,0.5469
2023-03-21T06:55:29.896Z,0.5370
2023-03-21T06:56:31.337Z,0.5245
2023-03-21T06:57:32.777Z,0.5157
2023-03-21T06:58:34.224Z,0.5121
2023-03-21T06:59:35.641Z,0.5118
2023-03-21T07:00:37.121Z,0.5262
2023-03-21T07:01:38.538Z,0.5217
2023-03-21T07:02:40.040Z,0.5184
2023-03-21T07:03:41.397Z,0.5203
2023-03-21T07:04:42.836Z,0.5289
2023-03-21T07:05:44.262Z,0.5401
2023-03-21T07:06:45.729Z,0.5366
2023-03-21T07:07:47.143Z,0.5222
2023-03-21T07:08:48.585Z,0.5178
2023-03-21T07:09:50.018Z,0.5152
2023-03-21T07:10:51.451Z,0.5183
2023-03-21T07:11:52.903Z,0.5194
2023-03-21T07:12:54.339Z,0.5214
2023-03-21T07:13:55.780Z,0.5213
2023-03-21T07:14:57.210Z,0.5173
2023-03-21T07:15:58.660Z,0.5136
2023-03-21T07:17:00.185Z,0.5064
2023-03-21T07:18:01.527Z,0.5175
2023-03-21T07:19:02.974Z,0.5315
2023-03-21T07:20:04.413Z,0.5307
2023-03-21T07:21:05.856Z,0.5333
2023-03-21T07:22:07.322Z,0.5308
2023-03-21T07:23:08.741Z,0.5340
2023-03-21T07:24:10.170Z,0.5363
2023-03-21T07:25:11.687Z,0.5426
2023-03-21T07:26:13.069Z,0.5507
2023-03-21T07:27:14.508Z,0.5614
2023-03-21T07:28:15.923Z,0.5598
2023-03-21T07:29:17.387Z,0.5569
2023-03-21T07:30:18.810Z,0.5488
2023-03-21T07:31:20.277Z,0.5617
2023-03-21T07:32:21.683Z,0.5750
2023-03-21T07:33:23.157Z,0.5815
2023-03-21T07:34:24.554Z,0.5820
2023-03-21T07:35:26.021Z,0.6017
2023-03-21T07:36:27.436Z,0.6222
2023-03-21T07:37:28.906Z,0.6498
2023-03-21T07:38:30.318Z,0.6612
2023-03-21T07:39:31.761Z,0.6696
2023-03-21T07:40:33.215Z,0.6767
2023-03-21T07:41:34.641Z,0.6826
2023-03-21T07:42:36.090Z,0.6847
2023-03-21T07:43:39.211Z,0.6901
2023-03-21T17:02:34.837Z,0.4436
2023-03-21T17:03:36.294Z,0.4846
2023-03-21T17:04:37.754Z,0.4916
2023-03-21T17:05:39.145Z,0.5005
2023-03-21T17:06:40.575Z,0.4982
2023-03-21T17:07:42.005Z,0.4988
2023-03-21T17:08:43.439Z,0.5122
2023-03-21T17:09:44.880Z,0.5167
2023-03-21T17:10:46.314Z,0.5112
2023-03-21T17:11:47.739Z,0.5062
2023-03-21T17:12:49.186Z,0.4912
2023-03-21T17:13:50.601Z,0.5001
2023-03-21T17:14:52.038Z,0.5210
2023-03-21T17:15:53.524Z,0.5245
2023-03-21T17:16:54.983Z,0.5276
2023-03-21T17:17:56.341Z,0.5123
2023-03-21T17:18:57.785Z,0.5171
2023-03-21T17:19:59.244Z,0.4997
2023-03-21T17:21:00.667Z,0.5095
2023-03-21T17:22:02.082Z,0.5012
2023-03-21T17:23:03.525Z,0.4955
2023-03-21T17:24:04.964Z,0.4938
2023-03-21T17:25:06.388Z,0.4924
2023-03-21T17:26:07.821Z,0.4980
2023-03-21T17:27:09.262Z,0.5003
2023-03-21T17:28:10.701Z,0.4993
2023-03-21T17:29:12.126Z,0.4983
2023-03-21T17:30:13.626Z,0.4955
2023-03-21T17:31:15.058Z,0.4928
2023-03-21T17:32:16.431Z,0.5037
2023-03-21T17:33:17.880Z,0.5070
2023-03-21T17:34:19.288Z,0.5116
2023-03-21T17:35:20.751Z,0.5037
2023-03-21T17:36:22.142Z,0.4983
2023-03-21T17:37:23.594Z,0.5040
2023-03-21T17:38:25.009Z,0.5008
2023-03-21T17:39:26.442Z,0.5032
2023-03-21T17:40:27.873Z,0.5241
2023-03-21T17:41:29.309Z,0.5221
2023-03-21T17:42:30.737Z,0.5255
2023-03-21T17:43:32.178Z,0.5221
2023-03-21T17:44:33.590Z,0.5311
2023-03-21T17:45:35.027Z,0.5419
2023-03-21T17:46:36.513Z,0.5416
2023-03-21T17:47:37.913Z,0.5303
2023-03-21T17:48:39.333Z,0.5279
2023-03-21T17:49:40.759Z,0.5267
2023-03-21T17:50:42.185Z,0.5248
2023-03-21T17:51:43.632Z,0.5145
2023-03-21T17:52:45.058Z,0.5110
2023-03-21T17:53:46.487Z,0.5115
2023-03-21T17:54:47.951Z,0.5054
2023-03-21T17:55:49.377Z,0.5025
2023-03-21T17:56:50.801Z,0.4982
2023-03-21T17:57:52.239Z,0.4990
2023-03-21T17:58:53.665Z,0.5099
2023-03-21T17:59:55.108Z,0.5204
2023-03-21T18:00:56.546Z,0.5181
2023-03-21T18:01:58.023Z,0.5261
2023-03-21T18:02:59.490Z,0.5382
2023-03-21T18:04:00.889Z,0.5517
2023-03-21T18:05:02.396Z,0.5470
2023-03-21T18:06:03.736Z,0.5352
2023-03-21T18:07:06.919Z,0.5447
2023-03-21T18:08:11.037Z,0.5456
2023-03-21T18:09:08.024Z,0.5523
2023-03-21T18:10:09.467Z,0.5443
2023-03-21T18:11:10.899Z,0.5520
2023-03-21T18:12:12.329Z,0.5456
2023-03-21T18:13:13.763Z,0.5448
2023-03-21T18:14:18.081Z,0.5385
2023-03-21T18:15:18.917Z,0.5389
2023-03-21T18:16:18.112Z,0.5327
2023-03-21T18:17:19.478Z,0.5283
2023-03-21T18:18:20.918Z,0.5264
2023-03-21T18:19:22.344Z,0.5272
2023-03-21T18:20:24.258Z,0.5249
2023-03-21T18:21:26.296Z,0.5250
2023-03-21T18:22:26.648Z,0.5347
2023-03-21T18:23:28.079Z,0.5315
2023-03-21T18:24:29.519Z,0.5311
2023-03-21T18:25:30.934Z,0.5320
2023-03-21T18:26:32.429Z,0.5326
2023-03-21T18:27:35.301Z,0.5401
2023-03-21T18:28:35.228Z,0.5418
2023-03-21T18:31:00.286Z,0.5310
2023-03-21T18:31:39.529Z,0.5409
2023-03-21T18:32:41.015Z,0.5400
2023-03-21T18:33:42.389Z,0.5403
2023-03-21T18:34:43.831Z,0.5404
2023-03-21T18:35:46.374Z,0.5396
2023-03-21T18:36:49.141Z,0.5583
2023-03-21T18:37:48.134Z,0.5549
2023-03-21T18:38:49.538Z,0.5523
2023-03-21T18:39:50.976Z,0.5491
2023-03-21T18:40:52.395Z,0.5550
2023-03-21T18:41:57.762Z,0.5513
2023-03-21T18:44:05.438Z,0.5386
2023-03-21T18:44:58.189Z,0.5427
2023-03-21T18:45:59.571Z,0.5544
2023-03-21T18:47:01.018Z,0.5558
2023-03-21T18:48:02.463Z,0.5539
2023-03-21T18:49:33.941Z,0.5565
2023-03-21T18:50:14.125Z,0.5574
2023-03-21T18:51:06.718Z,0.5530
2023-03-21T18:52:08.175Z,0.5561
2023-03-21T18:53:09.572Z,0.5621
2023-03-21T18:54:11.013Z,0.5591
2023-03-21T18:55:12.441Z,0.5598
2023-03-21T18:56:40.797Z,0.5580
2023-03-21T18:58:16.744Z,0.5580
2023-03-21T18:59:18.171Z,0.5587
2023-03-21T19:00:19.646Z,0.5471
2023-03-21T19:01:21.165Z,0.5402
2023-03-21T19:02:22.633Z,0.5318
2023-03-21T19:03:35.893Z,0.5336
2023-03-21T19:04:30.045Z,0.5188
2023-03-21T19:05:26.836Z,0.5098
2023-03-21T19:06:28.237Z,0.5187
2023-03-21T19:07:29.644Z,0.5232
2023-03-21T19:08:31.120Z,0.5371
2023-03-21T19:09:32.499Z,0.5387
2023-03-21T19:10:33.944Z,0.5399
2023-03-21T19:11:35.395Z,0.5466
2023-03-21T19:12:36.822Z,0.5380
2023-03-21T19:13:38.224Z,0.5336
2023-03-21T19:14:39.662Z,0.5250
2023-03-21T19:15:41.525Z,0.5233
2023-03-21T19:17:08.476Z,0.5311
2023-03-21T19:18:54.519Z,0.5215
2023-03-21T19:19:46.908Z,0.5249
2023-03-21T19:20:48.264Z,0.5307
2023-03-21T19:21:49.692Z,0.5403
2023-03-21T19:22:51.141Z,0.5468
2023-03-21T19:24:25.259Z,0.5436
2023-03-21T19:24:54.003Z,0.5372
2023-03-21T19:25:55.420Z,0.5412
2023-03-21T19:26:56.858Z,0.5579
2023-03-21T19:27:58.300Z,0.5739
2023-03-21T19:28:59.729Z,0.5597
2023-03-21T19:30:13.466Z,0.5501
2023-03-21T19:31:02.590Z,0.5512
2023-03-21T19:32:04.088Z,0.5678
2023-03-21T19:33:05.472Z,0.5749
2023-03-21T19:34:06.889Z,0.5716
2023-03-21T19:35:08.366Z,0.5741
2023-03-21T19:36:20.930Z,0.5792
2023-03-21T19:37:11.240Z,0.5814
2023-03-21T19:38:12.633Z,0.5763
2023-03-21T19:39:14.072Z,0.5669
2023-03-21T19:40:15.511Z,0.5609
2023-03-21T19:41:16.959Z,0.5492
2023-03-21T19:42:18.474Z,0.5360
2023-03-21T19:43:32.270Z,0.5527
2023-03-21T19:44:21.249Z,0.5658
2023-03-21T19:45:22.679Z,0.5659
2023-03-21T19:46:24.113Z,0.5670
2023-03-21T19:47:25.562Z,0.5714
2023-03-21T19:48:27.179Z,0.5694
2023-03-21T19:49:48.535Z,0.5695
2023-03-21T19:51:24.467Z,0.5747
2023-03-21T19:51:31.582Z,0.5617
2023-03-21T19:52:32.731Z,0.5644
2023-03-21T19:53:34.163Z,0.5644
2023-03-21T19:54:35.591Z,0.5658
2023-03-21T19:55:37.030Z,0.5612
2023-03-21T19:56:38.451Z,0.5560
2023-03-21T19:57:39.939Z,0.5554
2023-03-21T19:58:41.330Z,0.5585
2023-03-21T19:59:42.775Z,0.5661
2023-03-21T20:00:44.205Z,0.5660
2023-03-21T20:01:45.998Z,0.5685
2023-03-21T20:02:47.129Z,0.5640
2023-03-21T20:03:48.573Z,0.5644
2023-03-21T20:04:49.950Z,0.5595
2023-03-21T20:05:51.461Z,0.5563
2023-03-21T20:06:52.817Z,0.5604
2023-03-21T20:07:54.265Z,0.5599
2023-03-21T20:09:41.213Z,0.5631
2023-03-21T20:09:57.576Z,0.5686
2023-03-21T20:10:58.562Z,0.5677
2023-03-21T20:12:00.012Z,0.5661
2023-03-21T20:13:01.450Z,0.5775
2023-03-21T20:14:02.898Z,0.5890
2023-03-21T20:15:16.661Z,0.5944
2023-03-21T20:16:05.791Z,0.5936
2023-03-21T20:17:07.239Z,0.5974
2023-03-21T20:18:08.632Z,0.5958
2023-03-21T20:19:10.073Z,0.6043
2023-03-21T20:20:11.508Z,0.5921
2023-03-21T20:21:17.667Z,0.5857
2023-03-21T20:22:24.515Z,0.5892
2023-03-21T20:23:16.093Z,0.5933
2023-03-21T20:24:17.240Z,0.5796
2023-03-21T20:25:18.665Z,0.5745
2023-03-21T20:26:20.098Z,0.5721
2023-03-21T20:27:21.524Z,0.5600
2023-03-21T20:28:27.128Z,0.5562
2023-03-21T20:30:25.841Z,0.5512
2023-03-21T20:31:27.391Z,0.5590
2023-03-21T20:32:28.713Z,0.5603
2023-03-21T20:33:30.146Z,0.5640
2023-03-21T20:34:31.598Z,0.5556
2023-03-21T20:36:23.681Z,0.5428
2023-03-21T20:36:40.442Z,0.5438
2023-03-21T20:37:35.954Z,0.5470
2023-03-21T20:38:37.333Z,0.5569
2023-03-21T20:39:38.753Z,0.5711
2023-03-21T20:40:40.537Z,0.5652
2023-03-21T20:41:41.629Z,0.5812
2023-03-21T20:42:43.078Z,0.5910
2023-03-21T20:44:57.940Z,0.5752
2023-03-21T20:45:47.377Z,0.5538
2023-03-21T20:46:48.902Z,0.5594
2023-03-21T20:47:50.278Z,0.5629
2023-03-21T20:48:51.717Z,0.5634
2023-03-21T20:49:53.126Z,0.5562
2023-03-21T20:50:58.883Z,0.5442
2023-03-21T20:52:49.823Z,0.5590
2023-03-21T20:53:06.957Z,0.5651
2023-03-21T20:53:58.941Z,0.5649
2023-03-21T20:55:00.340Z,0.5653
2023-03-21T20:56:01.757Z,0.5700
2023-03-21T20:57:03.402Z,0.5676
2023-03-21T20:58:26.761Z,0.5655
2023-03-21T20:59:17.398Z,0.5568
2023-03-21T21:00:07.492Z,0.5592
2023-03-21T21:01:08.996Z,0.5591
2023-03-21T21:02:10.362Z,0.5746
2023-03-21T21:03:11.894Z,0.5820
2023-03-21T21:04:15.170Z,0.6150
2023-03-21T21:05:27.456Z,0.6541
2023-03-21T21:06:16.231Z,0.6583
2023-03-21T21:07:17.586Z,0.6682
2023-03-21T21:08:19.000Z,0.6668
2023-03-21T21:09:20.433Z,0.6665
2023-03-21T21:10:22.368Z,0.6663
2023-03-21T21:12:24.688Z,0.6479
2023-03-21T21:13:26.099Z,0.6366
2023-03-21T21:14:27.544Z,0.6295
2023-03-21T21:15:28.974Z,0.6166
2023-03-21T21:16:30.421Z,0.6318
2023-03-21T21:17:54.483Z,0.6332
2023-03-21T21:18:33.229Z,0.6342
2023-03-21T21:19:34.661Z,0.6454
2023-03-21T21:20:36.420Z,0.6341
2023-03-21T21:21:37.522Z,0.6319
2023-03-21T21:22:39.327Z,0.6306
2023-03-21T21:23:40.339Z,0.6400
2023-03-21T21:24:41.752Z,0.6637
2023-03-21T21:25:43.196Z,0.6685
2023-03-21T21:26:44.631Z,0.6563
2023-03-21T21:27:46.034Z,0.6618
2023-03-21T21:28:47.457Z,0.6612
2023-03-21T21:29:48.888Z,0.6530
2023-03-21T21:30:50.458Z,0.6507
2023-03-21T21:31:51.750Z,0.6518
2023-03-21T21:32:53.156Z,0.6585
2023-03-21T21:33:54.605Z,0.6893
2023-03-21T21:34:56.033Z,0.7078
2023-03-21T21:35:57.502Z,0.7147
2023-03-21T21:36:58.917Z,0.7027
2023-03-21T21:38:00.301Z,0.6774
2023-03-21T21:39:01.718Z,0.6692
2023-03-21T21:40:03.155Z,0.6649
2023-03-21T21:41:04.566Z,0.6583
2023-03-21T21:42:05.993Z,0.6701
2023-03-21T21:43:07.420Z,0.6608
2023-03-21T21:44:08.849Z,0.6327
2023-03-21T21:45:10.359Z,0.6301
2023-03-21T21:46:11.742Z,0.6507
2023-03-21T21:47:13.131Z,0.6606
2023-03-21T21:48:14.572Z,0.6584
2023-03-21T21:49:15.976Z,0.6656
2023-03-21T21:50:17.406Z,0.6540
2023-03-21T21:51:18.832Z,0.6117
2023-03-21T21:52:20.276Z,0.5918
2023-03-21T21:53:21.683Z,0.5448
2023-03-21T21:54:23.109Z,0.5126
2023-03-21T21:55:24.529Z,0.5268
2023-03-21T21:56:25.966Z,0.5241
2023-03-21T21:57:27.401Z,0.5348
2023-03-21T21:58:28.822Z,0.5304
2023-03-21T21:59:30.236Z,0.5125
2023-03-21T22:00:31.664Z,0.5122
2023-03-21T22:01:33.101Z,0.5080
2023-03-21T22:02:34.519Z,0.5175
2023-03-21T22:03:35.928Z,0.5218
2023-03-21T22:04:37.357Z,0.5264
2023-03-21T22:05:38.761Z,0.5325
2023-03-21T22:06:40.185Z,0.5161
2023-03-21T22:07:41.626Z,0.5412
2023-03-21T22:08:43.029Z,0.5530
2023-03-21T22:09:44.462Z,0.5473
2023-03-21T22:10:45.878Z,0.5498
2023-03-21T22:11:47.299Z,0.5548
2023-03-21T22:12:48.742Z,0.5414